createdAt,value
2023-11-27T00:01:41.380Z,100923.59
2023-11-27T00:04:08.037Z,100920.97
2023-11-27T00:06:34.711Z,100920.03
2023-11-27T00:09:01.159Z,100914.81
2023-11-27T00:11:27.531Z,100900.06
2023-11-27T00:13:53.888Z,100906.97
2023-11-27T00:16:20.337Z,100906.97
2023-11-27T00:18:47.937Z,100899.97
2023-11-27T00:21:14.894Z,100902.47
2023-11-27T00:23:41.446Z,100892.00
2023-11-27T00:26:08.799Z,100889.41
2023-11-27T00:28:35.232Z,100879.03
2023-11-27T00:31:01.913Z,100881.56
2023-11-27T00:33:28.469Z,100869.44
2023-11-27T00:35:54.872Z,100860.63
2023-11-27T00:38:21.273Z,100850.28
2023-11-27T00:40:47.817Z,100854.69
2023-11-27T00:43:14.463Z,100845.16
2023-11-27T00:45:41.076Z,100840.78
2023-11-27T00:48:07.897Z,100833.88
2023-11-27T00:50:34.333Z,100825.09
2023-11-27T00:53:00.711Z,100829.50
2023-11-27T00:55:27.151Z,100824.25
2023-11-27T00:57:53.537Z,100820.69
2023-11-27T01:00:20.486Z,100805.97
2023-11-27T01:02:47.001Z,100810.34
2023-11-27T01:05:16.384Z,100807.75
2023-11-27T01:07:43.107Z,100803.44
2023-11-27T01:10:09.934Z,100793.91
2023-11-27T01:12:39.608Z,100785.22
2023-11-27T01:15:07.688Z,100786.19
2023-11-27T01:17:34.150Z,100775.72
2023-11-27T01:20:00.549Z,100779.47
2023-11-27T01:22:26.942Z,100769.88
2023-11-27T01:24:53.442Z,100755.22
2023-11-27T01:27:19.848Z,100764.22
2023-11-27T01:29:46.206Z,100757.28
2023-11-27T01:32:12.657Z,100756.66
2023-11-27T01:34:39.059Z,100750.78
2023-11-27T01:37:05.730Z,100744.81
2023-11-27T01:39:32.150Z,100740.72
2023-11-27T01:41:58.585Z,100729.66
2023-11-27T01:44:25.012Z,100731.31
2023-11-27T01:46:51.488Z,100736.75
2023-11-27T01:49:19.883Z,100721.91
2023-11-27T01:51:49.341Z,100721.91
2023-11-27T01:54:17.213Z,100712.38
2023-11-27T01:56:47.567Z,100711.56
2023-11-27T01:59:14.302Z,100698.59
2023-11-27T02:01:40.979Z,100695.97
2023-11-27T02:04:08.246Z,100683.03
2023-11-27T02:06:34.761Z,100686.59
2023-11-27T02:09:01.320Z,100685.75
2023-11-27T02:11:27.957Z,100673.63
2023-11-27T02:13:54.747Z,100676.25
2023-11-27T02:16:24.012Z,100670.06
2023-11-27T02:18:50.739Z,100657.00
2023-11-27T02:21:18.437Z,100658.78
2023-11-27T02:23:44.854Z,100651.03
2023-11-27T02:26:11.310Z,100646.56
2023-11-27T02:28:38.102Z,100646.66
2023-11-27T02:31:06.299Z,100631.91
2023-11-27T02:33:32.958Z,100636.31
2023-11-27T02:35:59.388Z,100625.13
2023-11-27T02:38:25.848Z,100619.91
2023-11-27T02:40:52.321Z,100613.00
2023-11-27T02:43:18.813Z,100602.56
2023-11-27T02:45:45.710Z,100602.56
2023-11-27T02:48:12.188Z,100595.69
2023-11-27T02:50:38.613Z,100592.13
2023-11-27T02:53:05.231Z,100578.31
2023-11-27T02:55:31.737Z,100580.00
2023-11-27T02:57:58.118Z,100574.78
2023-11-27T03:00:24.605Z,100567.78
2023-11-27T03:02:51.195Z,100572.91
2023-11-27T03:05:17.665Z,100557.22
2023-11-27T03:07:44.851Z,100555.56
2023-11-27T03:10:13.984Z,100545.94
2023-11-27T03:12:40.372Z,100545.94
2023-11-27T03:15:07.075Z,100533.72
2023-11-27T03:17:33.602Z,100531.94
2023-11-27T03:20:00.008Z,100524.22
2023-11-27T03:22:26.520Z,100519.00
2023-11-27T03:24:53.074Z,100510.22
2023-11-27T03:27:19.603Z,100507.59
2023-11-27T03:29:46.494Z,100498.94
2023-11-27T03:32:13.041Z,100485.03
2023-11-27T03:34:39.515Z,100487.66
2023-11-27T03:37:05.984Z,100488.47
2023-11-27T03:39:32.613Z,100474.59
2023-11-27T03:41:58.995Z,100471.97
2023-11-27T03:44:25.441Z,100465.09
2023-11-27T03:46:51.867Z,100468.53
2023-11-27T03:49:18.435Z,100467.59
2023-11-27T03:51:44.916Z,100455.38
2023-11-27T03:54:13.941Z,100451.09
2023-11-27T03:56:40.354Z,100447.53
2023-11-27T03:59:06.823Z,100442.31
2023-11-27T04:01:33.448Z,100441.34
2023-11-27T04:04:00.946Z,100440.41
2023-11-27T04:06:33.312Z,100429.97
2023-11-27T04:09:00.404Z,100425.56
2023-11-27T04:11:28.393Z,100415.97
2023-11-27T04:13:55.950Z,100418.56
2023-11-27T04:16:23.469Z,100423.06
2023-11-27T04:18:50.195Z,100414.28
2023-11-27T04:21:18.386Z,100409.19
2023-11-27T04:23:48.671Z,100406.56
2023-11-27T04:26:16.481Z,100414.28
2023-11-27T04:28:44.228Z,100410.03
2023-11-27T04:31:10.970Z,100398.84
2023-11-27T04:33:37.505Z,100396.13
2023-11-27T04:36:04.198Z,100400.53
2023-11-27T04:38:30.619Z,100394.34
2023-11-27T04:40:57.023Z,100384.13
2023-11-27T04:43:23.715Z,100385.69
2023-11-27T04:45:50.274Z,100383.31
2023-11-27T04:48:16.662Z,100385.03
2023-11-27T04:50:45.066Z,100378.16
2023-11-27T04:53:11.812Z,100371.28
2023-11-27T04:55:38.235Z,100367.94
2023-11-27T04:58:04.740Z,100361.06
2023-11-27T05:00:31.231Z,100343.72
2023-11-27T05:02:57.842Z,100348.09
2023-11-27T05:05:24.378Z,100342.03
2023-11-27T05:07:50.782Z,100343.09
2023-11-27T05:10:17.234Z,100328.47
2023-11-27T05:12:43.672Z,100318.97
2023-11-27T05:15:10.497Z,100313.97
2023-11-27T05:17:36.943Z,100311.34
2023-11-27T05:20:04.809Z,100297.59
2023-11-27T05:22:31.264Z,100297.59
2023-11-27T05:24:57.702Z,100290.78
2023-11-27T05:27:24.779Z,100286.41
2023-11-27T05:29:51.130Z,100276.91
2023-11-27T05:32:18.108Z,100282.13
2023-11-27T05:34:44.534Z,100269.06
2023-11-27T05:37:11.058Z,100269.19
2023-11-27T05:39:38.355Z,100260.53
2023-11-27T05:42:05.205Z,100257.06
2023-11-27T05:44:32.603Z,100254.47
2023-11-27T05:46:59.130Z,100257.91
2023-11-27T05:49:25.646Z,100249.34
2023-11-27T05:51:52.579Z,100252.06
2023-11-27T05:54:19.996Z,100253.13
2023-11-27T05:56:46.518Z,100243.50
2023-11-27T05:59:13.126Z,100241.00
2023-11-27T06:01:39.516Z,100239.34
2023-11-27T06:04:05.957Z,100228.16
2023-11-27T06:06:32.358Z,100223.88
2023-11-27T06:08:58.762Z,100211.78
2023-11-27T06:11:25.114Z,100210.13
2023-11-27T06:13:51.535Z,100199.69
2023-11-27T06:16:18.186Z,100208.34
2023-11-27T06:18:44.733Z,100195.41
2023-11-27T06:21:12.408Z,100196.13
2023-11-27T06:23:39.312Z,100199.44
2023-11-27T06:26:06.068Z,100186.41
2023-11-27T06:28:32.642Z,100178.56
2023-11-27T06:30:59.524Z,100182.13
2023-11-27T06:33:27.345Z,100175.13
2023-11-27T06:35:55.036Z,100164.81
2023-11-27T06:38:21.680Z,100172.88
2023-11-27T06:40:49.295Z,100161.69
2023-11-27T06:43:17.061Z,100150.31
2023-11-27T06:45:43.868Z,100159.09
2023-11-27T06:48:10.449Z,100148.75
2023-11-27T06:50:36.972Z,100142.00
2023-11-27T06:53:03.785Z,100143.84
2023-11-27T06:55:30.896Z,100139.72
2023-11-27T06:57:57.579Z,100131.06
2023-11-27T07:00:24.376Z,100128.44
2023-11-27T07:02:51.042Z,100118.94
2023-11-27T07:05:17.580Z,100118.13
2023-11-27T07:07:44.121Z,100107.69
2023-11-27T07:10:12.347Z,100106.63
2023-11-27T07:12:38.755Z,100101.63
2023-11-27T07:15:05.723Z,100094.72
2023-11-27T07:17:32.102Z,100094.72
2023-11-27T07:19:58.471Z,100087.84
2023-11-27T07:22:25.042Z,100079.06
2023-11-27T07:24:51.895Z,100080.75
2023-11-27T07:27:18.819Z,100082.41
2023-11-27T07:29:45.697Z,100080.75
2023-11-27T07:32:12.692Z,100075.53
2023-11-27T07:34:39.240Z,100068.44
2023-11-27T07:37:05.716Z,100059.88
2023-11-27T07:39:32.143Z,100059.06
2023-11-27T07:41:58.598Z,100054.66
2023-11-27T07:44:26.264Z,100049.44
2023-11-27T07:46:53.162Z,100056.31
2023-11-27T07:49:20.228Z,100034.72
2023-11-27T07:51:47.275Z,100031.19
2023-11-27T07:54:13.740Z,100030.22
2023-11-27T07:56:40.379Z,100019.81
2023-11-27T07:59:06.848Z,100018.13
2023-11-27T08:01:33.336Z,100017.91
2023-11-27T08:03:59.975Z,100019.56
2023-11-27T08:06:26.427Z,100008.41
2023-11-27T08:08:55.144Z,100013.63
2023-11-27T08:11:34.661Z,100004.84
2023-11-27T08:14:02.054Z,99993.59
2023-11-27T08:16:28.678Z,99995.97
2023-11-27T08:18:55.301Z,99990.84
2023-11-27T08:21:21.824Z,99976.16
2023-11-27T08:23:48.871Z,99983.03
2023-11-27T08:26:16.347Z,99983.03
2023-11-27T08:28:42.736Z,99978.63
2023-11-27T08:31:10.136Z,99972.59
2023-11-27T08:33:37.251Z,99968.94
2023-11-27T08:36:04.650Z,99970.59
2023-11-27T08:38:34.117Z,99959.09
2023-11-27T08:41:00.687Z,99956.47
2023-11-27T08:43:28.217Z,99954.81
2023-11-27T08:45:55.094Z,99951.25
2023-11-27T08:48:21.484Z,99956.47
2023-11-27T08:50:48.394Z,99946.03
2023-11-27T08:53:14.885Z,99949.47
2023-11-27T08:55:41.487Z,99952.09
2023-11-27T08:58:08.326Z,99947.69
2023-11-27T09:00:36.424Z,99946.75
2023-11-27T09:03:04.178Z,99944.06
2023-11-27T09:05:34.682Z,99941.31
2023-11-27T09:08:06.188Z,99928.03
2023-11-27T09:10:33.555Z,99929.72
2023-11-27T09:13:00.213Z,99918.53
2023-11-27T09:15:26.691Z,99926.38
2023-11-27T09:17:53.281Z,99914.06
2023-11-27T09:20:19.911Z,99912.16
2023-11-27T09:22:46.473Z,99905.28
2023-11-27T09:25:14.238Z,99903.63
2023-11-27T09:27:41.100Z,99900.06
2023-11-27T09:30:08.620Z,99903.38
2023-11-27T09:32:38.651Z,99901.72
2023-11-27T09:35:06.754Z,99891.97
2023-11-27T09:37:35.814Z,99887.56
2023-11-27T09:40:04.790Z,99875.34
2023-11-27T09:42:45.590Z,99875.34
2023-11-27T09:45:14.872Z,99877.75
2023-11-27T09:47:44.796Z,99875.84
2023-11-27T09:50:14.113Z,99866.94
2023-11-27T09:53:06.873Z,99856.63
2023-11-27T09:55:41.624Z,99855.66
2023-11-27T09:58:11.754Z,99852.97
2023-11-27T10:00:42.668Z,99850.44
2023-11-27T10:03:11.675Z,99841.69
2023-11-27T10:05:38.733Z,99839.06
2023-11-27T10:08:05.500Z,99829.34
2023-11-27T10:10:32.187Z,99822.47
2023-11-27T10:13:04.533Z,99828.03
2023-11-27T10:15:35.992Z,99827.19
2023-11-27T10:18:06.123Z,99823.63
2023-11-27T10:20:33.284Z,99821.50
2023-11-27T10:22:59.985Z,99810.19
2023-11-27T10:25:26.546Z,99804.16
2023-11-27T10:28:01.583Z,99805.59
2023-11-27T10:30:31.234Z,99797.06
2023-11-27T10:32:57.880Z,99790.16
2023-11-27T10:35:26.650Z,99786.69
2023-11-27T10:37:55.912Z,99795.41
2023-11-27T10:40:27.198Z,99784.94
2023-11-27T10:42:58.859Z,99774.25
2023-11-27T10:45:26.563Z,99765.22
2023-11-27T10:47:53.525Z,99766.88
2023-11-27T10:50:21.031Z,99757.28
2023-11-27T10:52:51.006Z,99750.41
2023-11-27T10:55:20.034Z,99744.09
2023-11-27T10:57:48.436Z,99744.91
2023-11-27T11:00:33.979Z,99749.31
2023-11-27T11:03:08.146Z,99745.50
2023-11-27T11:05:46.689Z,99742.63
2023-11-27T11:08:13.574Z,99733.03
2023-11-27T11:10:41.910Z,99737.06
2023-11-27T11:13:14.093Z,99733.63
2023-11-27T11:16:01.615Z,99730.75
2023-11-27T11:18:47.511Z,99719.94
2023-11-27T11:21:40.497Z,99721.84
2023-11-27T11:24:12.948Z,99712.31
2023-11-27T11:26:51.517Z,99703.44
2023-11-27T11:29:35.168Z,99695.09
2023-11-27T11:32:03.070Z,99693.16
2023-11-27T11:34:34.190Z,99684.38
2023-11-27T11:37:01.677Z,99683.31
2023-11-27T11:39:28.486Z,99671.91
2023-11-27T11:42:05.160Z,99669.28
2023-11-27T11:44:38.754Z,99664.75
2023-11-27T11:47:30.193Z,99669.03
2023-11-27T11:50:19.597Z,99655.97
2023-11-27T11:52:48.439Z,99648.38
2023-11-27T11:55:22.223Z,99638.50
2023-11-27T11:57:49.709Z,99639.91
2023-11-27T12:00:23.506Z,99629.19
2023-11-27T12:02:55.782Z,99623.84
2023-11-27T12:05:26.550Z,99620.41
2023-11-27T12:07:53.205Z,99613.28
2023-11-27T12:10:19.635Z,99611.63
2023-11-27T12:12:50.295Z,99606.13
2023-11-27T12:15:17.737Z,99608.34
2023-11-27T12:17:49.910Z,99602.31
2023-11-27T12:20:22.450Z,99599.28
2023-11-27T12:22:49.974Z,99588.72
2023-11-27T12:25:19.506Z,99590.66
2023-11-27T12:27:49.447Z,99580.06
2023-11-27T12:30:21.520Z,99576.25
2023-11-27T12:32:52.284Z,99571.84
2023-11-27T12:35:22.469Z,99559.75
2023-11-27T12:37:50.281Z,99560.56
2023-11-27T12:40:19.067Z,99555.06
2023-11-27T12:42:49.644Z,99550.94
2023-11-27T12:45:22.014Z,99546.25
2023-11-27T12:47:52.722Z,99539.66
2023-11-27T12:50:25.915Z,99541.22
2023-11-27T12:53:04.075Z,99539.41
2023-11-27T12:55:38.326Z,99533.09
2023-11-27T12:58:14.647Z,99523.44
2023-11-27T13:00:46.841Z,99522.50
2023-11-27T13:03:20.822Z,99511.34
2023-11-27T13:05:54.377Z,99517.00
2023-11-27T13:08:25.087Z,99519.63
2023-11-27T13:10:52.437Z,99512.75
2023-11-27T13:13:22.827Z,99508.59
2023-11-27T13:15:50.508Z,99511.34
2023-11-27T13:18:17.280Z,99508.59
2023-11-27T13:20:47.407Z,99513.81
2023-11-27T13:23:14.307Z,99508.88
2023-11-27T13:25:40.786Z,99509.13
2023-11-27T13:28:10.220Z,99499.78
2023-11-27T13:30:37.513Z,99493.97
2023-11-27T13:33:14.108Z,99488.75
2023-11-27T13:35:42.069Z,99490.13
2023-11-27T13:38:21.411Z,99482.44
2023-11-27T13:40:55.734Z,99474.44
2023-11-27T13:43:26.897Z,99481.91
2023-11-27T13:45:53.602Z,99470.34
2023-11-27T13:48:23.430Z,99464.97
2023-11-27T13:50:51.314Z,99464.81
2023-11-27T13:53:18.589Z,99462.91
2023-11-27T13:55:51.348Z,99460.97
2023-11-27T13:58:20.602Z,99461.94
2023-11-27T14:00:49.935Z,99459.88
2023-11-27T14:03:23.255Z,99444.31
2023-11-27T14:05:56.760Z,99446.94
2023-11-27T14:08:31.208Z,99441.72
2023-11-27T14:11:32.239Z,99441.72
2023-11-27T14:14:11.793Z,99429.75
2023-11-27T14:16:46.080Z,99427.13
2023-11-27T14:19:14.423Z,99431.78
2023-11-27T14:22:03.413Z,99431.78
2023-11-27T14:24:48.230Z,99416.38
2023-11-27T14:27:20.399Z,99419.97
2023-11-27T14:29:50.308Z,99426.16
2023-11-27T14:32:17.154Z,99419.25
2023-11-27T14:34:47.329Z,99424.50
2023-11-27T14:37:15.946Z,99427.09
2023-11-27T14:39:47.660Z,99424.50
2023-11-27T14:42:14.120Z,99425.19
2023-11-27T14:44:40.489Z,99427.81
2023-11-27T14:47:10.192Z,99421.88
2023-11-27T14:49:36.669Z,99423.56
2023-11-27T14:52:05.817Z,99421.06
2023-11-27T14:54:33.103Z,99421.88
2023-11-27T14:57:01.337Z,99422.84
2023-11-27T14:59:28.083Z,99423.81
2023-11-27T15:01:54.907Z,99420.50
2023-11-27T15:04:21.860Z,99408.41
2023-11-27T15:06:50.045Z,99414.56
2023-11-27T15:09:22.779Z,99402.47
2023-11-27T15:11:52.822Z,99406.72
2023-11-27T15:14:20.599Z,99410.31
2023-11-27T15:16:49.484Z,99400.81
2023-11-27T15:19:16.172Z,99407.00
2023-11-27T15:21:43.957Z,99400.16
2023-11-27T15:24:10.914Z,99402.06
2023-11-27T15:26:38.886Z,99400.41
2023-11-27T15:29:06.382Z,99394.50
2023-11-27T15:31:36.334Z,99391.88
2023-11-27T15:34:12.757Z,99395.44
2023-11-27T15:36:40.261Z,99393.81
2023-11-27T15:39:23.838Z,99387.88
2023-11-27T15:41:51.861Z,99386.94
2023-11-27T15:44:19.156Z,99389.66
2023-11-27T15:46:46.612Z,99391.44
2023-11-27T15:49:13.188Z,99394.50
2023-11-27T15:51:42.688Z,99388.00
2023-11-27T15:54:09.951Z,99386.63
2023-11-27T15:56:36.696Z,99386.19
2023-11-27T15:59:03.920Z,99395.94
2023-11-27T16:01:30.835Z,99394.31
2023-11-27T16:03:57.688Z,99397.16
2023-11-27T16:06:24.435Z,99401.72
2023-11-27T16:08:50.878Z,99394.84
2023-11-27T16:11:22.064Z,99396.47
2023-11-27T16:13:48.601Z,99398.06
2023-11-27T16:16:15.445Z,99396.41
2023-11-27T16:18:45.637Z,99395.53
2023-11-27T16:21:16.707Z,99400.72
2023-11-27T16:23:43.210Z,99399.84
2023-11-27T16:26:12.383Z,99401.69
2023-11-27T16:28:38.786Z,99399.03
2023-11-27T16:31:06.184Z,99409.84
2023-11-27T16:33:34.190Z,99406.25
2023-11-27T16:36:01.192Z,99416.03
2023-11-27T16:38:27.787Z,99415.13
2023-11-27T16:40:54.304Z,99415.38
2023-11-27T16:43:20.896Z,99424.16
2023-11-27T16:45:48.480Z,99423.25
2023-11-27T16:48:14.955Z,99425.91
2023-11-27T16:50:42.437Z,99424.50
2023-11-27T16:53:12.350Z,99423.69
2023-11-27T16:55:38.819Z,99422.84
2023-11-27T16:58:08.260Z,99430.91
2023-11-27T17:00:37.027Z,99426.31
2023-11-27T17:03:05.688Z,99429.78
2023-11-27T17:05:33.971Z,99428.38
2023-11-27T17:08:03.811Z,99426.38
2023-11-27T17:10:31.829Z,99432.06
2023-11-27T17:12:59.415Z,99432.91
2023-11-27T17:15:26.953Z,99435.50
2023-11-27T17:17:54.242Z,99438.84
2023-11-27T17:20:21.957Z,99441.66
2023-11-27T17:23:00.165Z,99440.00
2023-11-27T17:25:32.895Z,99435.75
2023-11-27T17:27:59.866Z,99444.75
2023-11-27T17:30:26.719Z,99437.88
2023-11-27T17:32:53.315Z,99447.69
2023-11-27T17:35:20.777Z,99452.56
2023-11-27T17:37:47.550Z,99453.06
2023-11-27T17:40:15.245Z,99454.94
2023-11-27T17:42:42.893Z,99457.66
2023-11-27T17:45:11.056Z,99457.66
2023-11-27T17:47:40.066Z,99468.91
2023-11-27T17:50:14.294Z,99465.00
2023-11-27T17:52:44.813Z,99473.16
2023-11-27T17:55:12.309Z,99465.56
2023-11-27T17:57:39.048Z,99476.94
2023-11-27T18:00:14.868Z,99480.50
2023-11-27T18:02:42.800Z,99485.91
2023-11-27T18:05:09.919Z,99488.06
2023-11-27T18:07:38.441Z,99482.59
2023-11-27T18:10:05.431Z,99488.75
2023-11-27T18:12:32.137Z,99496.91
2023-11-27T18:14:58.656Z,99493.59
2023-11-27T18:17:25.155Z,99493.72
2023-11-27T18:19:51.567Z,99502.22
2023-11-27T18:22:18.021Z,99499.13
2023-11-27T18:24:44.430Z,99508.13
2023-11-27T18:27:10.858Z,99504.78
2023-11-27T18:29:37.225Z,99503.59
2023-11-27T18:32:05.026Z,99511.63
2023-11-27T18:34:31.506Z,99513.94
2023-11-27T18:36:58.032Z,99509.94
2023-11-27T18:39:31.258Z,99511.94
2023-11-27T18:41:58.890Z,99518.91
2023-11-27T18:44:26.778Z,99523.72
2023-11-27T18:46:54.222Z,99531.00
2023-11-27T18:49:24.933Z,99531.97
2023-11-27T18:51:57.964Z,99525.81
2023-11-27T18:54:25.093Z,99535.38
2023-11-27T18:56:52.102Z,99539.16
2023-11-27T18:59:19.192Z,99548.13
2023-11-27T19:01:45.885Z,99546.91
2023-11-27T19:04:13.478Z,99551.38
2023-11-27T19:06:39.874Z,99556.09
2023-11-27T19:09:07.701Z,99551.59
2023-11-27T19:11:34.557Z,99561.28
2023-11-27T19:14:02.043Z,99570.03
2023-11-27T19:16:28.560Z,99566.69
2023-11-27T19:18:55.347Z,99566.69
2023-11-27T19:21:22.302Z,99569.50
2023-11-27T19:23:48.725Z,99573.16
2023-11-27T19:26:15.298Z,99574.19
2023-11-27T19:28:43.221Z,99573.47
2023-11-27T19:31:09.749Z,99577.03
2023-11-27T19:33:36.592Z,99573.47
2023-11-27T19:36:04.564Z,99576.09
2023-11-27T19:38:33.891Z,99579.63
2023-11-27T19:41:07.256Z,99585.34
2023-11-27T19:43:36.036Z,99585.81
2023-11-27T19:46:03.249Z,99578.97
2023-11-27T19:48:30.456Z,99586.56
2023-11-27T19:50:56.996Z,99579.34
2023-11-27T19:53:24.151Z,99587.97
2023-11-27T19:55:57.832Z,99591.22
2023-11-27T19:58:26.028Z,99587.44
2023-11-27T20:00:52.529Z,99597.41
2023-11-27T20:03:20.868Z,99593.03
2023-11-27T20:05:47.725Z,99608.41
2023-11-27T20:08:14.817Z,99601.13
2023-11-27T20:10:41.383Z,99612.94
2023-11-27T20:13:10.261Z,99610.22
2023-11-27T20:15:38.527Z,99617.84
2023-11-27T20:18:05.786Z,99621.03
2023-11-27T20:20:32.349Z,99612.31
2023-11-27T20:22:59.085Z,99616.56
2023-11-27T20:25:27.118Z,99625.06
2023-11-27T20:27:54.554Z,99632.06
2023-11-27T20:30:21.021Z,99631.00
2023-11-27T20:32:47.508Z,99634.34
2023-11-27T20:35:14.005Z,99639.53
2023-11-27T20:37:41.194Z,99638.34
2023-11-27T20:40:10.350Z,99646.97
2023-11-27T20:42:37.362Z,99652.94
2023-11-27T20:45:04.780Z,99659.78
2023-11-27T20:47:31.351Z,99666.53
2023-11-27T20:49:57.887Z,99663.09
2023-11-27T20:52:24.852Z,99666.31
2023-11-27T20:54:52.056Z,99669.63
2023-11-27T20:57:18.546Z,99662.53
2023-11-27T20:59:45.004Z,99667.75
2023-11-27T21:02:12.004Z,99669.44
2023-11-27T21:04:41.977Z,99677.81
2023-11-27T21:07:12.235Z,99673.34
2023-11-27T21:09:39.228Z,99680.00
2023-11-27T21:12:06.379Z,99678.94
2023-11-27T21:14:32.750Z,99681.31
2023-11-27T21:17:01.589Z,99686.28
2023-11-27T21:19:30.828Z,99692.25
2023-11-27T21:21:57.348Z,99699.09
2023-11-27T21:24:23.916Z,99696.50
2023-11-27T21:26:50.381Z,99711.16
2023-11-27T21:29:16.748Z,99693.91
2023-11-27T21:31:43.235Z,99707.09
2023-11-27T21:34:09.681Z,99699.09
2023-11-27T21:36:36.559Z,99713.06
2023-11-27T21:39:04.889Z,99716.38
2023-11-27T21:41:33.661Z,99719.69
2023-11-27T21:44:00.595Z,99713.53
2023-11-27T21:46:27.115Z,99716.13
2023-11-27T21:48:53.553Z,99717.72
2023-11-27T21:51:20.217Z,99728.00
2023-11-27T21:53:46.681Z,99728.81
2023-11-27T21:56:13.129Z,99728.63
2023-11-27T21:58:39.651Z,99737.13
2023-11-27T22:01:16.711Z,99743.19
2023-11-27T22:03:44.556Z,99734.41
2023-11-27T22:06:11.290Z,99743.75
2023-11-27T22:08:37.863Z,99744.38
2023-11-27T22:11:05.361Z,99746.03
2023-11-27T22:13:32.243Z,99747.69
2023-11-27T22:15:58.747Z,99746.75
2023-11-27T22:18:25.268Z,99752.69
2023-11-27T22:20:51.934Z,99759.56
2023-11-27T22:23:18.415Z,99758.50
2023-11-27T22:25:44.841Z,99768.84
2023-11-27T22:28:11.351Z,99770.50
2023-11-27T22:30:38.034Z,99785.16
2023-11-27T22:33:04.548Z,99786.81
2023-11-27T22:35:31.668Z,99797.25
2023-11-27T22:37:58.295Z,99800.91
2023-11-27T22:40:26.710Z,99810.59
2023-11-27T22:42:54.683Z,99822.06
2023-11-27T22:45:21.220Z,99828.41
2023-11-27T22:47:47.760Z,99831.03
2023-11-27T22:50:14.214Z,99831.13
2023-11-27T22:52:40.774Z,99843.44
2023-11-27T22:55:07.602Z,99839.25
2023-11-27T22:57:34.055Z,99847.06
2023-11-27T23:00:00.446Z,99858.44
2023-11-27T23:02:28.063Z,99861.97
2023-11-27T23:04:54.586Z,99867.91
2023-11-27T23:07:21.948Z,99873.34
2023-11-27T23:09:48.468Z,99876.88
2023-11-27T23:12:15.452Z,99878.75
2023-11-27T23:14:42.146Z,99885.84
2023-11-27T23:17:08.685Z,99893.53
2023-11-27T23:19:35.288Z,99896.25
2023-11-27T23:22:01.712Z,99906.88
2023-11-27T23:24:28.082Z,99895.66
2023-11-27T23:26:54.899Z,99904.28
2023-11-27T23:29:22.427Z,99906.88
2023-11-27T23:31:49.883Z,99908.53
2023-11-27T23:34:18.359Z,99917.31
2023-11-27T23:36:44.828Z,99913.94
2023-11-27T23:39:12.210Z,99915.63
2023-11-27T23:41:38.621Z,99927.91
2023-11-27T23:44:05.332Z,99923.53
2023-11-27T23:46:32.164Z,99935.81
2023-11-27T23:48:58.737Z,99927.06
2023-11-27T23:51:28.969Z,99935.81
2023-11-27T23:53:55.628Z,99938.53
2023-11-27T23:56:22.285Z,99945.41
2023-11-27T23:58:49.211Z,99941.25
